Time;durP1;ratioP1;P1;durP2;ratioP2;P2;SDS_P1;SDS_P2;PMS_P1;PMS_P2;Temp;Humidity;BMP_temperature;BMP_pressure;BME280_temperature;BME280_humidity;BME280_pressure;Samples;Min_cycle;Max_cycle;Signal;HPM_P1;HPM_P2
2022/08/30 00:01:57;;;;;;;12.82;8.00;;;;;;;19.53;77.38;94789.75;5132322;27;20177;-72
2022/08/30 00:04:25;;;;;;;12.27;7.63;;;;;;;19.42;78.14;94788.81;5132924;27;20253;-72
2022/08/30 00:06:51;;;;;;;11.77;8.15;;;;;;;19.31;78.28;94782.44;5133023;27;20252;-71
2022/08/30 00:09:18;;;;;;;9.93;7.97;;;;;;;19.34;78.17;94781.69;5132923;27;20420;-71
2022/08/30 00:11:45;;;;;;;13.60;8.63;;;;;;;19.40;77.62;94788.44;5132703;27;20240;-71
2022/08/30 00:14:12;;;;;;;14.43;7.63;;;;;;;19.39;77.83;94781.34;5133075;27;20242;-71
2022/08/30 00:16:39;;;;;;;13.45;8.50;;;;;;;19.28;78.50;94789.47;5131751;27;20562;-71
2022/08/30 00:19:07;;;;;;;11.52;8.27;;;;;;;19.22;78.68;94782.78;5132383;27;20246;-71
2022/08/30 00:21:34;;;;;;;11.80;8.40;;;;;;;19.25;78.80;94781.22;5132475;27;20200;-71
2022/08/30 00:24:01;;;;;;;13.70;8.50;;;;;;;19.23;79.02;94783.56;5133134;27;20208;-71
2022/08/30 00:26:28;;;;;;;12.18;8.77;;;;;;;19.34;78.64;94784.44;5132561;27;20274;-71
2022/08/30 00:28:55;;;;;;;10.52;8.15;;;;;;;19.40;78.19;94777.44;5132776;27;20675;-72
2022/08/30 00:31:21;;;;;;;13.00;7.65;;;;;;;19.43;78.61;94782.16;5152701;27;20246;-71
2022/08/30 00:33:48;;;;;;;12.57;8.15;;;;;;;19.42;78.34;94780.56;5151987;27;20276;-72
2022/08/30 00:36:17;;;;;;;13.20;8.52;;;;;;;19.39;78.59;94775.84;5152155;27;20260;-72
2022/08/30 00:38:44;;;;;;;13.43;10.57;;;;;;;19.41;78.49;94781.75;5153106;27;20195;-71
2022/08/30 00:41:10;;;;;;;13.25;8.73;;;;;;;19.54;78.35;94782.28;5153057;27;20200;-72
2022/08/30 00:43:38;;;;;;;12.10;8.40;;;;;;;19.51;78.54;94784.63;5153241;27;20244;-72
2022/08/30 00:46:07;;;;;;;12.55;8.65;;;;;;;19.45;78.67;94785.31;5150086;27;20220;-72
2022/08/30 00:48:37;;;;;;;11.63;8.07;;;;;;;19.39;79.22;94784.09;5131922;27;20224;-71
2022/08/30 00:51:09;;;;;;;12.63;8.63;;;;;;;19.36;79.01;94793.09;5131914;27;20196;-72
2022/08/30 00:53:40;;;;;;;11.80;8.25;;;;;;;19.31;79.43;94790.69;5132202;27;20189;-72
2022/08/30 00:56:08;;;;;;;15.18;8.00;;;;;;;19.31;79.84;94796.19;5132006;27;20190;-71
2022/08/30 00:58:38;;;;;;;17.92;11.25;;;;;;;19.24;80.27;94791.44;5132081;27;20220;-71
2022/08/30 01:01:07;;;;;;;13.20;8.93;;;;;;;19.28;80.45;94799.69;5131732;27;20205;-71
2022/08/30 01:03:36;;;;;;;10.13;7.72;;;;;;;19.19;79.86;94789.00;5131942;27;20204;-71
2022/08/30 01:06:04;;;;;;;10.00;7.82;;;;;;;19.13;80.05;94790.53;5130917;27;20273;-71
2022/08/30 01:08:31;;;;;;;14.57;8.07;;;;;;;19.10;79.98;94786.59;5131756;27;20655;-71
2022/08/30 01:11:01;;;;;;;14.13;8.05;;;;;;;19.11;79.64;94782.69;5132006;27;20438;-71
2022/08/30 01:13:28;;;;;;;10.73;7.53;;;;;;;19.04;80.80;94782.59;5131473;27;20277;-71
2022/08/30 01:15:58;;;;;;;11.38;8.50;;;;;;;19.00;80.90;94778.22;5131879;27;20204;-71
2022/08/30 01:18:26;;;;;;;11.55;7.55;;;;;;;19.00;80.64;94776.28;5131647;27;20201;-71
2022/08/30 01:21:01;;;;;;;17.58;9.13;;;;;;;19.01;80.70;94771.56;5131659;27;20248;-71
2022/08/30 01:23:33;;;;;;;9.65;7.95;;;;;;;18.88;80.57;94778.50;5131919;27;20189;-71
2022/08/30 01:26:02;;;;;;;14.02;7.20;;;;;;;18.83;80.53;94779.66;5130835;27;20238;-72
2022/08/30 01:28:30;;;;;;;11.50;6.97;;;;;;;18.80;81.03;94778.44;5131243;27;20689;-71
2022/08/30 01:30:56;;;;;;;10.77;8.02;;;;;;;18.74;81.68;94776.38;5148084;27;20200;-71
2022/08/30 01:33:24;;;;;;;11.25;7.85;;;;;;;18.59;82.79;94777.41;5151401;27;20283;-71
2022/08/30 01:35:56;;;;;;;14.57;9.25;;;;;;;18.54;83.07;94769.47;5151757;27;20208;-71
2022/08/30 01:38:27;;;;;;;16.70;9.07;;;;;;;18.42;83.90;94779.56;5151443;27;20180;-71
2022/08/30 01:41:00;;;;;;;14.88;8.77;;;;;;;18.39;84.30;94785.78;5151398;27;20197;-71
2022/08/30 01:43:27;;;;;;;17.65;9.32;;;;;;;18.32;85.05;94780.19;5151625;27;20225;-71
2022/08/30 01:45:54;;;;;;;14.80;9.52;;;;;;;18.30;85.49;94782.53;5149746;27;20192;-71
2022/08/30 01:48:22;;;;;;;18.20;9.23;;;;;;;18.33;85.53;94776.28;5130243;27;20277;-71
2022/08/30 01:50:49;;;;;;;14.65;9.40;;;;;;;18.30;85.44;94776.25;5130478;27;20666;-71
2022/08/30 01:53:16;;;;;;;14.32;9.00;;;;;;;18.29;85.27;94769.97;5131216;27;20234;-71
2022/08/30 01:55:43;;;;;;;15.48;8.82;;;;;;;18.24;85.76;94772.25;5130892;27;20296;-71
2022/08/30 01:58:11;;;;;;;13.73;9.07;;;;;;;18.22;85.80;94774.56;5131077;27;20272;-71
2022/08/30 02:00:38;;;;;;;12.30;8.35;;;;;;;18.21;85.78;94773.78;5130550;27;20655;-71
2022/08/30 02:03:05;;;;;;;14.65;9.68;;;;;;;18.12;86.08;94767.81;5130102;27;20197;-71
2022/08/30 02:05:33;;;;;;;15.10;9.82;;;;;;;18.17;86.05;94762.00;5130405;27;20200;-71
2022/08/30 02:08:00;;;;;;;16.67;9.02;;;;;;;18.21;85.89;94767.50;5130284;27;20234;-71
2022/08/30 02:10:28;;;;;;;13.77;8.65;;;;;;;18.14;86.13;94757.25;5130984;27;20269;-71
2022/08/30 02:12:55;;;;;;;12.32;8.45;;;;;;;18.11;85.94;94772.50;5130816;27;20244;-71
2022/08/30 02:15:23;;;;;;;12.80;9.55;;;;;;;18.08;86.27;94761.47;5130805;28;20197;-71
2022/08/30 02:17:50;;;;;;;12.10;8.65;;;;;;;18.09;86.10;94766.59;5130639;28;20197;-70
2022/08/30 02:20:17;;;;;;;13.85;8.90;;;;;;;18.15;85.90;94760.78;5130442;28;20201;-70
2022/08/30 02:22:45;;;;;;;10.75;7.45;;;;;;;18.12;85.76;94759.56;5131230;28;20197;-70
2022/08/30 02:25:12;;;;;;;16.67;8.43;;;;;;;18.22;85.16;94747.94;5130909;28;20287;-70
2022/08/30 02:27:38;;;;;;;13.98;8.65;;;;;;;18.18;85.54;94755.31;5130832;28;20560;-70
2022/08/30 02:30:07;;;;;;;11.90;7.85;;;;;;;18.12;85.52;94754.09;5140337;27;20278;-71
2022/08/30 02:32:36;;;;;;;11.43;7.47;;;;;;;17.96;86.15;94757.00;5151251;27;20702;-70
2022/08/30 02:35:02;;;;;;;9.98;7.93;;;;;;;17.95;85.80;94760.13;5151256;27;20208;-70
2022/08/30 02:37:29;;;;;;;13.25;8.45;;;;;;;17.91;86.97;94764.75;5150740;27;20669;-71
2022/08/30 02:39:56;;;;;;;12.77;8.50;;;;;;;17.79;87.04;94768.50;5151091;27;20230;-71
2022/08/30 02:42:23;;;;;;;14.15;9.82;;;;;;;17.50;89.37;94764.53;5151408;27;20572;-71
2022/08/30 02:44:49;;;;;;;16.10;9.35;;;;;;;17.43;90.50;94767.16;5151943;27;20741;-71
2022/08/30 02:47:16;;;;;;;15.32;9.45;;;;;;;17.49;90.24;94753.97;5141368;27;20227;-71
2022/08/30 02:49:45;;;;;;;14.23;10.27;;;;;;;17.50;90.13;94750.81;5134086;27;20552;-71
2022/08/30 02:52:12;;;;;;;14.02;9.50;;;;;;;17.50;90.12;94750.81;5133291;27;20209;-71
2022/08/30 02:54:38;;;;;;;12.75;8.63;;;;;;;17.38;90.96;94753.78;5134095;27;20204;-71
2022/08/30 02:57:06;;;;;;;13.98;9.65;;;;;;;17.34;91.47;94751.00;5134178;27;20209;-71
2022/08/30 02:59:36;;;;;;;16.63;9.45;;;;;;;17.21;92.52;94748.81;5134451;27;20204;-71
2022/08/30 03:02:03;;;;;;;14.55;9.73;;;;;;;17.23;92.35;94755.50;5134605;27;20302;-71
2022/08/30 03:04:30;;;;;;;18.52;9.77;;;;;;;17.36;90.81;94756.09;5134173;27;20655;-71
2022/08/30 03:06:58;;;;;;;16.80;9.45;;;;;;;17.39;89.70;94755.34;5134079;27;20271;-71
2022/08/30 03:09:25;;;;;;;11.70;8.27;;;;;;;17.52;89.18;94759.47;5133021;27;20207;-70
2022/08/30 03:11:52;;;;;;;12.30;8.65;;;;;;;17.47;89.33;94762.53;5133087;27;20290;-70
2022/08/30 03:14:19;;;;;;;12.20;8.50;;;;;;;17.53;88.96;94760.25;5133578;27;20204;-70
2022/08/30 03:16:46;;;;;;;11.50;8.73;;;;;;;17.54;88.67;94759.09;5134067;27;20288;-71
2022/08/30 03:19:12;;;;;;;12.73;8.60;;;;;;;17.61;88.53;94760.03;5134030;27;20653;-71
2022/08/30 03:21:39;;;;;;;10.38;8.18;;;;;;;17.57;88.83;94772.88;5133898;27;20667;-71
2022/08/30 03:24:08;;;;;;;10.80;7.93;;;;;;;17.58;88.47;94771.72;5133526;27;20209;-70
2022/08/30 03:26:34;;;;;;;12.10;8.68;;;;;;;17.49;88.77;94770.41;5133708;27;20193;-71
2022/08/30 03:29:01;;;;;;;14.15;9.05;;;;;;;17.53;88.42;94777.50;5134309;27;20193;-70
2022/08/30 03:31:29;;;;;;;12.73;8.32;;;;;;;17.59;88.18;94770.56;5154574;27;20283;-70
2022/08/30 03:33:56;;;;;;;15.50;8.13;;;;;;;17.50;88.21;94767.25;5154384;27;20303;-70
2022/08/30 03:36:22;;;;;;;15.88;8.15;;;;;;;17.61;87.59;94767.44;5154293;27;20252;-70
2022/08/30 03:38:49;;;;;;;10.10;7.75;;;;;;;17.70;87.06;94766.03;5154229;27;20197;-71
2022/08/30 03:41:18;;;;;;;10.55;8.38;;;;;;;17.69;86.69;94764.47;5153670;27;20650;-70
2022/08/30 03:43:46;;;;;;;12.30;8.63;;;;;;;17.80;86.79;94775.56;5154275;27;20204;-72
2022/08/30 03:46:13;;;;;;;12.25;9.25;;;;;;;17.81;86.62;94766.19;5150117;27;20659;-70
2022/08/30 03:48:40;;;;;;;14.15;8.48;;;;;;;17.84;86.75;94767.41;5133505;27;20240;-72
2022/08/30 03:51:07;;;;;;;12.25;8.88;;;;;;;17.91;86.11;94764.75;5133686;27;20204;-72
2022/08/30 03:53:34;;;;;;;11.73;7.20;;;;;;;17.95;85.97;94768.34;5133081;27;20201;-71
2022/08/30 03:56:01;;;;;;;12.77;7.60;;;;;;;17.99;85.98;94771.94;5132640;27;20246;-71
2022/08/30 03:58:30;;;;;;;12.20;7.72;;;;;;;18.02;85.50;94768.47;5133434;27;20627;-71
2022/08/30 04:00:56;;;;;;;11.80;8.35;;;;;;;17.82;86.42;94773.25;5133238;27;20213;-71
2022/08/30 04:03:24;;;;;;;10.10;7.03;;;;;;;17.85;86.41;94766.25;5133303;27;20197;-71
2022/08/30 04:05:52;;;;;;;13.50;8.27;;;;;;;17.91;86.53;94770.22;5133368;27;20513;-71
2022/08/30 04:08:20;;;;;;;12.90;8.18;;;;;;;17.96;86.45;94767.19;5133560;27;20224;-71
2022/08/30 04:10:47;;;;;;;9.68;7.47;;;;;;;18.12;85.77;94776.03;5132380;27;20203;-71
2022/08/30 04:13:15;;;;;;;13.48;7.90;;;;;;;18.17;85.61;94778.44;5132144;27;20239;-70
2022/08/30 04:15:43;;;;;;;11.30;7.43;;;;;;;18.21;85.34;94779.25;5132612;27;20197;-71
2022/08/30 04:18:10;;;;;;;13.35;8.30;;;;;;;18.26;85.11;94781.69;5132946;27;20250;-72
2022/08/30 04:20:37;;;;;;;12.95;7.85;;;;;;;18.34;84.84;94766.09;5132883;27;20292;-71
2022/08/30 04:23:05;;;;;;;13.63;8.60;;;;;;;18.38;84.78;94773.22;5132802;27;20193;-70
2022/08/30 04:25:33;;;;;;;12.00;7.70;;;;;;;18.40;84.65;94776.38;5132034;27;20244;-71
2022/08/30 04:28:00;;;;;;;12.68;8.38;;;;;;;18.31;84.76;94775.88;5132634;27;20286;-70
2022/08/30 04:30:27;;;;;;;11.57;8.77;;;;;;;18.37;84.48;94785.34;5144816;27;20196;-71
2022/08/30 04:32:56;;;;;;;13.73;8.43;;;;;;;18.60;83.93;94781.72;5153192;27;20244;-71
2022/08/30 04:35:23;;;;;;;11.93;8.38;;;;;;;18.76;83.58;94783.09;5153313;27;20273;-71
2022/08/30 04:37:49;;;;;;;12.13;8.75;;;;;;;18.83;83.49;94787.09;5153054;27;20204;-71
2022/08/30 04:40:16;;;;;;;16.02;8.52;;;;;;;18.83;83.21;94785.13;5153063;27;20211;-71
2022/08/30 04:42:43;;;;;;;16.20;9.40;;;;;;;18.95;82.87;94790.34;5152893;27;20257;-71
2022/08/30 04:45:13;;;;;;;11.90;8.48;;;;;;;18.90;83.08;94793.44;5152772;27;20200;-71
2022/08/30 04:47:41;;;;;;;15.05;9.35;;;;;;;18.90;83.34;94793.44;5136293;27;20631;-71
2022/08/30 04:50:13;;;;;;;13.52;9.48;;;;;;;18.90;83.06;94798.13;5132150;27;20296;-70
2022/08/30 04:52:40;;;;;;;15.13;8.80;;;;;;;18.87;83.86;94799.66;5132020;27;20250;-71
2022/08/30 04:55:09;;;;;;;12.60;8.48;;;;;;;19.11;82.98;94801.91;5132128;27;20613;-70
2022/08/30 04:57:37;;;;;;;15.48;9.43;;;;;;;19.12;82.83;94808.97;5131635;27;20205;-72
2022/08/30 05:00:06;;;;;;;17.75;9.63;;;;;;;19.21;82.46;94807.88;5131803;27;20558;-70
2022/08/30 05:02:33;;;;;;;15.45;9.95;;;;;;;19.42;81.33;94810.78;5131993;27;20298;-70
2022/08/30 05:07:45;;;;;;;18.58;9.55;;;;;;;19.41;81.52;94817.47;5130960;27;20720;-71
2022/08/30 05:10:12;;;;;;;18.30;11.07;;;;;;;19.29;81.73;94820.50;5131883;27;20200;-71
2022/08/30 05:12:39;;;;;;;14.00;9.55;;;;;;;19.38;81.96;94818.22;5130955;27;20229;-70
2022/08/30 05:15:07;;;;;;;17.52;11.77;;;;;;;19.57;81.55;94811.75;5131563;27;20253;-72
2022/08/30 05:17:34;;;;;;;24.00;12.18;;;;;;;19.56;81.33;94819.19;5131834;27;20201;-71
2022/08/30 05:20:01;;;;;;;18.15;10.70;;;;;;;19.60;81.04;94817.28;5132048;27;20254;-71
2022/08/30 05:22:28;;;;;;;15.77;9.70;;;;;;;19.74;80.54;94814.63;5131605;27;20659;-71
2022/08/30 05:24:57;;;;;;;13.95;9.57;;;;;;;19.59;81.63;94818.44;5131619;27;20677;-71
2022/08/30 05:27:24;;;;;;;17.25;9.27;;;;;;;19.67;80.81;94825.59;5130816;27;20240;-71
2022/08/30 05:29:50;;;;;;;14.45;9.52;;;;;;;19.73;80.81;94824.06;5139305;27;20212;-71
2022/08/30 05:32:17;;;;;;;18.40;9.65;;;;;;;19.82;80.65;94815.47;5152181;27;20216;-71
2022/08/30 05:34:44;;;;;;;16.98;13.13;;;;;;;19.73;80.47;94824.06;5152128;27;20283;-71
2022/08/30 05:37:11;;;;;;;13.88;10.18;;;;;;;19.75;80.40;94818.97;5151240;27;20196;-70
2022/08/30 05:39:38;;;;;;;15.18;10.05;;;;;;;19.80;80.35;94818.63;5151796;27;20196;-71
2022/08/30 05:42:07;;;;;;;16.65;10.43;;;;;;;19.76;80.66;94817.78;5151677;27;20200;-71
2022/08/30 05:44:33;;;;;;;21.80;10.30;;;;;;;19.92;79.61;94819.47;5152056;27;20196;-71
2022/08/30 05:47:00;;;;;;;18.52;11.38;;;;;;;19.97;79.23;94821.84;5140690;27;20268;-71
2022/08/30 05:49:27;;;;;;;16.15;10.10;;;;;;;19.92;79.26;94819.47;5130197;27;20756;-71
2022/08/30 05:51:54;;;;;;;13.80;10.15;;;;;;;20.05;79.13;94818.00;5130154;27;20258;-71
2022/08/30 05:54:21;;;;;;;17.95;12.00;;;;;;;20.19;79.39;94818.09;5130570;27;20368;-71
2022/08/30 05:56:48;;;;;;;14.50;10.80;;;;;;;20.33;79.99;94812.66;5131015;27;20205;-72
2022/08/30 05:59:16;;;;;;;20.48;11.60;;;;;;;20.38;79.59;94814.28;5130749;27;20254;-72
2022/08/30 06:01:45;;;;;;;20.73;14.38;;;;;;;20.46;78.72;94816.69;5130349;27;20659;-72
2022/08/30 06:04:13;;;;;;;18.65;11.32;;;;;;;20.53;79.77;94816.72;5130660;27;20196;-73
2022/08/30 06:06:42;;;;;;;17.23;11.23;;;;;;;20.17;80.11;94814.94;5130745;27;20201;-74
2022/08/30 06:09:10;;;;;;;14.30;10.45;;;;;;;19.93;81.36;94819.09;5130976;27;20269;-73
2022/08/30 06:11:37;;;;;;;17.08;12.20;;;;;;;19.72;82.74;94816.97;5130446;27;20221;-73
2022/08/30 06:14:05;;;;;;;17.70;12.30;;;;;;;19.49;83.88;94808.16;5130861;27;20231;-73
2022/08/30 06:16:34;;;;;;;18.17;11.55;;;;;;;19.76;85.45;94826.03;5130102;28;20600;-72
2022/08/30 06:19:01;;;;;;;20.45;15.35;;;;;;;19.64;84.74;94820.84;5132858;27;20197;-72
2022/08/30 06:21:30;;;;;;;19.95;11.98;;;;;;;19.74;85.06;94828.38;5137714;27;20250;-72
2022/08/30 06:23:58;;;;;;;16.80;11.40;;;;;;;19.74;85.11;94836.63;5138029;27;20709;-73
2022/08/30 06:26:26;;;;;;;17.13;11.75;;;;;;;19.77;85.93;94841.38;5137463;27;20277;-73
2022/08/30 06:28:53;;;;;;;16.42;10.95;;;;;;;20.41;85.11;94841.81;5137205;27;20277;-73
2022/08/30 06:31:21;;;;;;;24.85;12.80;;;;;;;21.07;83.50;94834.22;5157410;27;20196;-73
2022/08/30 06:33:51;;;;;;;21.88;16.52;;;;;;;21.66;81.04;94831.19;5158170;27;20219;-74
2022/08/30 06:36:20;;;;;;;20.67;14.82;;;;;;;22.66;76.34;94836.22;5158330;27;20244;-73
2022/08/30 06:38:50;;;;;;;22.67;12.00;;;;;;;22.98;72.01;94829.78;5157992;27;20199;-74
2022/08/30 06:41:22;;;;;;;16.75;11.10;;;;;;;22.89;74.70;94829.44;5158513;27;20301;-74
2022/08/30 06:43:49;;;;;;;22.38;12.05;;;;;;;22.97;76.36;94831.75;5158103;27;20691;-73
2022/08/30 06:46:19;;;;;;;21.17;13.75;;;;;;;23.61;72.41;94830.63;5153815;27;20193;-72
2022/08/30 06:48:45;;;;;;;18.05;14.20;;;;;;;23.61;72.37;94838.94;5137218;27;20269;-72
2022/08/30 06:51:14;;;;;;;20.23;14.32;;;;;;;23.60;70.12;94831.84;5137658;27;20214;-72
2022/08/30 06:53:41;;;;;;;19.55;14.10;;;;;;;23.49;70.56;94842.16;5137769;27;20205;-72
2022/08/30 06:56:10;;;;;;;18.45;14.27;;;;;;;23.52;72.48;94844.13;5137122;27;20269;-73
2022/08/30 06:58:40;;;;;;;18.33;13.70;;;;;;;23.97;69.32;94837.47;5137602;27;20209;-72
2022/08/30 07:01:08;;;;;;;17.45;12.82;;;;;;;24.84;65.89;94838.22;5137114;27;20219;-72
2022/08/30 07:03:35;;;;;;;19.95;13.13;;;;;;;23.83;67.20;94843.09;5137314;27;20200;-72
2022/08/30 07:06:02;;;;;;;19.05;11.25;;;;;;;23.68;69.61;94847.19;5137432;27;20257;-71
2022/08/30 07:08:30;;;;;;;17.58;10.65;;;;;;;23.46;68.71;94842.97;5137233;27;20220;-71
2022/08/30 07:10:57;;;;;;;18.50;10.70;;;;;;;23.13;70.06;94847.88;5137577;27;20201;-73
2022/08/30 07:13:24;;;;;;;15.40;10.50;;;;;;;23.16;71.88;94838.78;5136737;27;20357;-72
2022/08/30 07:15:52;;;;;;;15.52;10.13;;;;;;;23.17;70.81;94851.41;5137013;27;20204;-73
2022/08/30 07:21:08;;;;;;;18.50;14.60;;;;;;;22.65;70.91;94865.03;5137311;27;20707;-72
2022/08/30 07:23:36;;;;;;;17.20;14.25;;;;;;;22.24;73.13;94855.63;5137102;27;20185;-72
2022/08/30 07:26:05;;;;;;;26.67;12.55;;;;;;;21.63;75.13;94861.13;5136560;27;20205;-72
2022/08/30 07:28:32;;;;;;;17.92;15.30;;;;;;;21.70;75.70;94854.06;5136381;27;20308;-72
2022/08/30 07:30:59;;;;;;;16.23;11.20;;;;;;;21.69;75.40;94864.28;5151122;27;20599;-72
2022/08/30 07:33:26;;;;;;;17.92;11.32;;;;;;;21.69;74.80;94869.81;5154203;27;20220;-72
2022/08/30 07:35:53;;;;;;;20.15;12.52;;;;;;;21.39;77.27;94856.38;5154295;27;20601;-72
2022/08/30 07:38:20;;;;;;;18.13;11.82;;;;;;;21.10;77.28;94855.47;5154420;27;20200;-72
2022/08/30 07:40:48;;;;;;;18.77;11.50;;;;;;;21.08;76.94;94851.53;5153755;27;20193;-73
2022/08/30 07:43:15;;;;;;;16.02;10.88;;;;;;;21.30;77.21;94857.94;5153309;27;20196;-72
2022/08/30 07:45:42;;;;;;;15.38;10.43;;;;;;;21.60;77.14;94858.34;5153846;27;20201;-72
2022/08/30 07:48:10;;;;;;;20.92;10.93;;;;;;;21.36;75.78;94856.34;5133713;27;20621;-72
2022/08/30 07:50:37;;;;;;;16.83;10.15;;;;;;;21.50;74.88;94859.13;5133237;27;20201;-70
2022/08/30 07:53:04;;;;;;;17.23;10.23;;;;;;;21.33;75.16;94859.88;5133389;27;20212;-71
2022/08/30 07:55:31;;;;;;;18.25;9.45;;;;;;;21.25;74.53;94868.16;5133681;27;20661;-72
2022/08/30 07:58:00;;;;;;;16.73;11.80;;;;;;;21.55;73.43;94872.56;5133487;27;20712;-70
2022/08/30 08:00:27;;;;;;;14.52;9.93;;;;;;;21.50;76.59;94872.94;5133433;27;20197;-71
2022/08/30 08:02:54;;;;;;;12.75;9.23;;;;;;;21.60;76.40;94867.41;5132543;27;20208;-73
2022/08/30 08:05:21;;;;;;;13.93;9.75;;;;;;;21.68;77.10;94868.22;5133400;27;20208;-71
2022/08/30 08:07:48;;;;;;;13.10;8.90;;;;;;;21.66;76.99;94870.59;5132877;27;20327;-73
2022/08/30 08:10:15;;;;;;;12.57;9.27;;;;;;;21.63;76.97;94871.38;5133074;27;20716;-73
2022/08/30 08:12:42;;;;;;;17.38;10.70;;;;;;;21.93;77.60;94882.81;5132663;27;20313;-73
2022/08/30 08:15:11;;;;;;;16.20;10.48;;;;;;;21.77;77.16;94876.91;5132866;27;20207;-73
2022/08/30 08:17:38;;;;;;;19.48;12.50;;;;;;;21.87;76.67;94884.38;5132733;27;20624;-72
2022/08/30 08:20:06;;;;;;;17.77;12.10;;;;;;;22.18;78.17;94879.28;5132890;27;20659;-73
2022/08/30 08:22:33;;;;;;;16.02;11.30;;;;;;;22.35;76.08;94872.97;5132864;27;20192;-73
2022/08/30 08:25:00;;;;;;;16.45;11.60;;;;;;;22.35;74.13;94878.50;5133020;27;20485;-72
2022/08/30 08:27:27;;;;;;;14.13;10.45;;;;;;;21.86;74.99;94874.56;5133026;27;20197;-71
2022/08/30 08:29:54;;;;;;;18.77;10.85;;;;;;;21.94;75.48;94876.13;5140720;27;20566;-73
2022/08/30 08:32:23;;;;;;;17.08;10.40;;;;;;;21.98;74.48;94874.16;5153555;27;20255;-72
2022/08/30 08:34:50;;;;;;;14.00;10.80;;;;;;;22.35;74.25;94872.97;5153153;27;20264;-72
2022/08/30 08:37:17;;;;;;;20.67;14.05;;;;;;;22.70;72.68;94872.88;5153078;27;20620;-72
2022/08/30 08:39:44;;;;;;;21.23;13.40;;;;;;;22.86;72.51;94868.91;5153438;27;20197;-72
2022/08/30 08:42:19;;;;;;;16.48;13.70;;;;;;;22.79;72.28;94863.44;5152266;27;20208;-72
2022/08/30 08:44:54;;;;;;;18.98;12.77;;;;;;;23.00;71.25;94864.13;5153125;27;20241;-72
2022/08/30 08:47:28;;;;;;;16.98;12.52;;;;;;;22.76;70.97;94865.00;5138839;27;20695;-72
2022/08/30 08:49:58;;;;;;;25.17;14.13;;;;;;;22.68;72.83;94875.28;5132398;27;20271;-72
2022/08/30 08:55:18;;;;;;;21.65;13.27;;;;;;;22.97;72.12;94869.66;5132103;27;20260;-71
2022/08/30 08:57:46;;;;;;;13.43;9.98;;;;;;;23.03;71.03;94859.78;5131031;27;20205;-71
2022/08/30 09:00:14;;;;;;;23.60;13.82;;;;;;;23.18;72.20;94871.56;5132059;27;20292;-71
2022/08/30 09:02:46;;;;;;;18.98;12.88;;;;;;;23.12;70.36;94860.13;5131613;27;20239;-72
2022/08/30 09:05:17;;;;;;;15.02;12.05;;;;;;;23.24;69.48;94856.88;5131229;27;20249;-71
2022/08/30 09:07:48;;;;;;;13.20;10.05;;;;;;;23.17;70.82;94856.94;5131424;27;20257;-72
2022/08/30 09:10:15;;;;;;;12.27;9.32;;;;;;;23.61;69.96;94852.78;5131051;27;20217;-71
2022/08/30 09:12:43;;;;;;;16.23;11.55;;;;;;;24.10;66.76;94852.38;5130490;27;20764;-72
2022/08/30 09:15:17;;;;;;;18.90;12.23;;;;;;;24.16;65.64;94855.50;5131090;27;20236;-72
2022/08/30 09:17:57;;;;;;;15.68;11.60;;;;;;;24.04;64.87;94853.25;5131458;27;20189;-71
2022/08/30 09:20:27;;;;;;;21.23;12.40;;;;;;;24.14;66.94;94851.56;5131727;27;20652;-70
2022/08/30 09:22:54;;;;;;;22.67;14.73;;;;;;;23.31;69.71;94856.88;5131085;27;20687;-73
2022/08/30 09:25:25;;;;;;;21.42;14.88;;;;;;;23.39;70.95;94860.38;5131469;27;20205;-71
2022/08/30 09:27:53;;;;;;;19.75;15.32;;;;;;;23.47;71.74;94859.16;5131530;27;20185;-72
2022/08/30 09:30:23;;;;;;;20.85;12.80;;;;;;;22.98;71.84;94871.22;5142531;27;20216;-73
2022/08/30 09:32:55;;;;;;;20.38;13.80;;;;;;;22.85;71.97;94868.13;5151726;27;20762;-72
2022/08/30 09:35:24;;;;;;;22.55;16.25;;;;;;;23.60;71.71;94859.50;5151661;27;20240;-71
2022/08/30 09:37:56;;;;;;;23.13;16.73;;;;;;;24.12;65.82;94865.03;5151774;27;20193;-71
2022/08/30 09:40:28;;;;;;;21.88;16.23;;;;;;;24.19;68.23;94862.97;5151591;27;20271;-72
2022/08/30 09:43:01;;;;;;;18.55;12.30;;;;;;;24.34;67.09;94860.88;5152322;27;20233;-72
2022/08/30 09:45:34;;;;;;;17.33;11.77;;;;;;;23.81;67.70;94867.63;5152271;27;20199;-72
2022/08/30 09:48:21;;;;;;;20.58;15.23;;;;;;;23.81;68.68;94862.09;5132509;27;20334;-72
2022/08/30 09:50:55;;;;;;;20.92;15.18;;;;;;;23.79;68.49;94853.41;5131023;27;20706;-72
2022/08/30 09:53:30;;;;;;;19.20;14.02;;;;;;;23.87;67.83;94859.69;5130522;27;20635;-73
2022/08/30 09:56:06;;;;;;;25.33;15.95;;;;;;;23.68;67.86;94859.03;5131173;27;20192;-72
2022/08/30 09:59:00;;;;;;;16.02;12.90;;;;;;;24.18;64.88;94852.31;5131215;27;20189;-72
2022/08/30 10:01:32;;;;;;;17.42;11.85;;;;;;;24.19;64.94;94848.38;5131261;27;20269;-72
2022/08/30 10:04:06;;;;;;;16.33;11.68;;;;;;;24.78;65.27;94844.19;5130814;27;20189;-73
2022/08/30 10:06:39;;;;;;;14.00;9.20;;;;;;;24.39;63.82;94841.06;5131086;27;20253;-72
2022/08/30 10:09:19;;;;;;;13.82;10.63;;;;;;;24.71;63.16;94833.22;5130888;27;20257;-72
2022/08/30 10:11:52;;;;;;;15.20;10.23;;;;;;;24.94;61.74;94829.00;5130262;27;20722;-72
2022/08/30 10:14:34;;;;;;;17.92;11.18;;;;;;;25.75;58.38;94825.13;5130988;27;20192;-71
2022/08/30 10:17:09;;;;;;;20.23;12.50;;;;;;;25.09;60.08;94827.63;5131060;27;20189;-73
2022/08/30 10:19:57;;;;;;;19.70;11.93;;;;;;;25.08;61.23;94826.06;5130207;28;20283;-72
2022/08/30 10:22:30;;;;;;;18.60;13.27;;;;;;;25.27;61.10;94817.09;5130484;28;20288;-72
2022/08/30 10:25:04;;;;;;;18.67;13.27;;;;;;;25.03;60.78;94813.44;5129898;28;20181;-71
2022/08/30 10:27:38;;;;;;;18.67;12.80;;;;;;;25.79;61.22;94809.19;5130234;28;20192;-71
2022/08/30 10:30:10;;;;;;;18.52;12.57;;;;;;;26.57;58.92;94806.28;5139617;27;20694;-71
2022/08/30 10:32:44;;;;;;;17.17;13.02;;;;;;;26.16;57.77;94799.06;5151250;27;20608;-72
2022/08/30 10:35:17;;;;;;;15.70;12.50;;;;;;;26.60;56.24;94803.44;5151402;27;20189;-71
2022/08/30 10:37:50;;;;;;;17.42;13.02;;;;;;;26.46;57.33;94800.94;5150556;27;20192;-71
2022/08/30 10:43:19;;;;;;;20.75;13.48;;;;;;;26.39;57.39;94803.81;5150921;27;20224;-72
2022/08/30 10:45:50;;;;;;;23.00;14.43;;;;;;;26.22;58.81;94793.81;5150550;27;20288;-73
2022/08/30 10:48:23;;;;;;;21.83;14.35;;;;;;;26.33;57.61;94797.19;5130400;28;20197;-70
2022/08/30 10:50:54;;;;;;;21.30;14.20;;;;;;;26.44;57.30;94797.78;5129905;28;20254;-72
2022/08/30 10:53:34;;;;;;;21.75;15.10;;;;;;;26.87;56.05;94797.72;5130490;28;20599;-71
2022/08/30 10:56:05;;;;;;;21.95;14.02;;;;;;;26.75;57.24;94796.38;5129548;28;20189;-71
2022/08/30 10:58:32;;;;;;;22.38;14.20;;;;;;;27.15;56.85;94785.25;5130450;28;20197;-71
2022/08/30 11:01:20;;;;;;;23.83;13.85;;;;;;;28.01;55.13;94782.06;5130368;28;20205;-71
2022/08/30 11:04:31;;;;;;;18.90;12.98;;;;;;;26.82;54.77;94799.00;5130448;28;20348;-72
2022/08/30 11:07:11;;;;;;;21.83;13.15;;;;;;;26.39;57.07;94789.94;5132814;27;20204;-72
2022/08/30 11:09:54;;;;;;;18.88;13.60;;;;;;;26.75;55.94;94793.59;5133688;27;20311;-72
2022/08/30 11:12:36;;;;;;;19.83;13.68;;;;;;;27.17;56.12;94777.28;5133810;27;20232;-72
2022/08/30 11:15:16;;;;;;;19.13;12.45;;;;;;;27.87;54.80;94774.06;5134073;27;20189;-72
2022/08/30 11:17:52;;;;;;;18.25;12.82;;;;;;;27.47;53.76;94770.63;5134412;27;20189;-72
2022/08/30 11:20:28;;;;;;;21.38;13.20;;;;;;;27.17;53.95;94769.72;5134105;27;20265;-71
2022/08/30 11:23:24;;;;;;;18.75;12.43;;;;;;;26.81;55.51;94766.84;5134422;27;20234;-72
2022/08/30 11:25:53;;;;;;;24.05;12.88;;;;;;;27.02;53.73;94759.31;5133830;27;20666;-72
2022/08/30 11:28:58;;;;;;;17.95;11.65;;;;;;;26.62;53.92;94759.31;5133650;27;20201;-71
2022/08/30 11:31:45;;;;;;;16.98;11.05;;;;;;;26.61;53.79;94757.75;5154508;27;20290;-71
2022/08/30 11:34:12;;;;;;;16.17;11.07;;;;;;;26.73;52.02;94768.22;5146207;27;20704;-71
2022/08/30 11:37:01;;;;;;;15.98;9.85;;;;;;;27.03;49.43;94763.66;5154407;27;20196;-72
2022/08/30 11:39:56;;;;;;;14.10;9.45;;;;;;;27.29;49.67;94761.91;5139980;27;20682;-71
2022/08/30 11:42:38;;;;;;;12.07;9.05;;;;;;;27.37;47.16;94772.44;5131134;27;20200;-72
2022/08/30 11:45:39;;;;;;;12.10;9.07;;;;;;;27.45;47.32;94754.38;5154083;27;20188;-71